Time;durP1;ratioP1;P1;durP2;ratioP2;P2;SDS_P1;SDS_P2;PMS_P1;PMS_P2;Temp;Humidity;BMP_temperature;BMP_pressure;BME280_temperature;BME280_humidity;BME280_pressure;Samples;Min_cycle;Max_cycle;Signal;HPM_P1;HPM_P2
2024/01/31 00:01:18;;;;;;;0.40;0.40;;;;;;;5.10;100.00;103257.63;5092947;28;20043;-58
2024/01/31 00:03:44;;;;;;;0.40;0.40;;;;;;;5.09;100.00;103260.94;5092910;28;20035;-58
2024/01/31 00:06:11;;;;;;;0.30;0.30;;;;;;;5.06;100.00;103258.09;5093103;28;20476;-58
2024/01/31 00:08:36;;;;;;;0.30;0.30;;;;;;;5.08;100.00;103252.34;5093144;28;20024;-58
2024/01/31 00:11:01;;;;;;;0.40;0.40;;;;;;;5.09;100.00;103250.72;5092726;28;20379;-59
2024/01/31 00:13:27;;;;;;;0.40;0.40;;;;;;;5.08;100.00;103248.91;5093174;28;20051;-58
2024/01/31 00:15:52;;;;;;;0.40;0.40;;;;;;;5.07;100.00;103258.25;5093172;28;20047;-58
2024/01/31 00:18:18;;;;;;;0.40;0.40;;;;;;;5.09;100.00;103260.94;5092454;28;20016;-58
2024/01/31 00:20:43;;;;;;;0.30;0.30;;;;;;;5.08;100.00;103260.03;5093156;28;20024;-58
2024/01/31 00:23:08;;;;;;;0.40;0.40;;;;;;;5.06;100.00;103265.75;5092252;28;20036;-58
2024/01/31 00:25:33;;;;;;;0.40;0.40;;;;;;;5.07;100.00;103273.59;5093248;28;20016;-58
2024/01/31 00:27:59;;;;;;;0.40;0.40;;;;;;;5.08;100.00;103282.16;5093205;28;20495;-58
2024/01/31 00:30:24;;;;;;;0.30;0.30;;;;;;;5.10;100.00;103281.53;5092157;28;20024;-58
2024/01/31 00:32:49;;;;;;;0.40;0.40;;;;;;;5.09;100.00;103281.38;5092951;28;20059;-58
2024/01/31 00:35:15;;;;;;;0.40;0.40;;;;;;;5.02;100.00;103282.50;5092550;28;20028;-59
2024/01/31 00:37:40;;;;;;;0.30;0.30;;;;;;;5.02;100.00;103285.06;5092092;28;20062;-58
2024/01/31 00:40:06;;;;;;;0.30;0.30;;;;;;;5.02;100.00;103289.25;5093128;28;20028;-58
2024/01/31 00:42:31;;;;;;;0.40;0.40;;;;;;;5.01;100.00;103290.91;5092420;28;20036;-57
2024/01/31 00:44:57;;;;;;;0.30;0.30;;;;;;;5.04;100.00;103295.41;5092076;28;20119;-58
2024/01/31 00:47:22;;;;;;;0.40;0.40;;;;;;;4.99;100.00;103296.66;5092813;28;20032;-57
2024/01/31 00:49:47;;;;;;;0.40;0.40;;;;;;;4.95;100.00;103300.56;5093092;28;20027;-57
2024/01/31 00:52:13;;;;;;;0.38;0.38;;;;;;;5.01;100.00;103302.78;5091583;28;20028;-58
2024/01/31 00:54:38;;;;;;;0.30;0.30;;;;;;;5.01;100.00;103297.66;5092988;28;20571;-57
2024/01/31 00:57:05;;;;;;;0.30;0.30;;;;;;;5.00;100.00;103301.00;5093036;28;20405;-57
2024/01/31 00:59:30;;;;;;;0.30;0.30;;;;;;;4.97;100.00;103293.94;5092089;28;20464;-58
2024/01/31 01:01:55;;;;;;;0.40;0.40;;;;;;;4.99;100.00;103305.19;5092859;28;20054;-58
2024/01/31 01:04:21;;;;;;;0.30;0.30;;;;;;;4.94;100.00;103307.34;5092070;28;20039;-57
2024/01/31 01:06:46;;;;;;;0.30;0.30;;;;;;;4.93;100.00;103304.63;5092311;28;20407;-58
2024/01/31 01:09:11;;;;;;;0.40;0.40;;;;;;;4.94;100.00;103307.34;5096656;28;20056;-57
2024/01/31 01:11:36;;;;;;;0.30;0.30;;;;;;;4.92;100.00;103303.75;5096589;28;20414;-57
2024/01/31 01:14:02;;;;;;;0.40;0.40;;;;;;;4.93;100.00;103305.53;5096225;28;20107;-58
2024/01/31 01:16:27;;;;;;;0.30;0.30;;;;;;;4.95;100.00;103316.78;5096344;28;20472;-57
2024/01/31 01:18:53;;;;;;;0.40;0.40;;;;;;;4.87;100.00;103315.19;5096538;28;20036;-57
2024/01/31 01:21:18;;;;;;;0.40;0.40;;;;;;;4.89;100.00;103306.03;5095567;28;20062;-57
2024/01/31 01:23:43;;;;;;;0.40;0.40;;;;;;;4.88;100.00;103308.41;5096664;28;20364;-57
2024/01/31 01:26:08;;;;;;;0.30;0.30;;;;;;;4.89;100.00;103311.13;5096518;28;20028;-57
2024/01/31 01:28:34;;;;;;;0.40;0.40;;;;;;;4.85;100.00;103311.59;5095770;28;20020;-58
2024/01/31 01:30:59;;;;;;;0.30;0.30;;;;;;;4.85;100.00;103309.03;5095876;28;20024;-57
2024/01/31 01:33:24;;;;;;;0.40;0.40;;;;;;;4.84;100.00;103309.81;5095223;28;20039;-57
2024/01/31 01:35:50;;;;;;;0.30;0.30;;;;;;;4.82;100.00;103305.31;5096308;28;20543;-57
2024/01/31 01:38:15;;;;;;;0.30;0.30;;;;;;;4.87;100.00;103314.31;5095908;28;20070;-58
2024/01/31 01:40:44;;;;;;;0.40;0.40;;;;;;;4.89;100.00;103318.81;5095518;28;20039;-58
2024/01/31 01:43:19;;;;;;;0.30;0.30;;;;;;;4.87;100.00;103315.19;5095675;28;20434;-58
2024/01/31 01:45:44;;;;;;;0.30;0.30;;;;;;;4.80;100.00;103310.25;5095966;28;20040;-58
2024/01/31 01:48:18;;;;;;;0.40;0.40;;;;;;;4.77;100.00;103315.09;5094945;28;20021;-58
2024/01/31 01:50:44;;;;;;;0.40;0.40;;;;;;;4.75;100.00;103309.84;5096481;28;20031;-57
2024/01/31 01:53:10;;;;;;;0.40;0.40;;;;;;;4.77;100.00;103312.53;5095869;28;20035;-58
2024/01/31 01:55:37;;;;;;;0.30;0.30;;;;;;;4.74;100.00;103307.16;5095287;28;20020;-58
2024/01/31 01:58:02;;;;;;;0.40;0.40;;;;;;;4.73;100.00;103306.25;5095793;28;20369;-57
2024/01/31 02:00:27;;;;;;;0.30;0.30;;;;;;;4.74;100.00;103296.94;5095201;28;20020;-57
2024/01/31 02:02:53;;;;;;;0.40;0.40;;;;;;;4.73;100.00;103305.34;5095130;28;20506;-57
2024/01/31 02:05:18;;;;;;;0.35;0.35;;;;;;;4.73;100.00;103302.81;5095403;28;20027;-57
2024/01/31 02:07:44;;;;;;;0.30;0.30;;;;;;;4.72;100.00;103303.53;5095607;28;20038;-57
2024/01/31 02:10:09;;;;;;;0.40;0.40;;;;;;;4.71;100.00;103306.84;5094862;28;20448;-57
2024/01/31 02:12:35;;;;;;;0.30;0.30;;;;;;;4.70;100.00;103305.03;5095733;28;20071;-57
2024/01/31 02:15:00;;;;;;;0.30;0.30;;;;;;;4.71;100.00;103305.22;5095349;28;20020;-57
2024/01/31 02:17:26;;;;;;;0.30;0.30;;;;;;;4.73;100.00;103300.25;5094284;28;20357;-57
2024/01/31 02:19:51;;;;;;;0.30;0.30;;;;;;;4.74;100.00;103291.84;5094982;28;20077;-57
2024/01/31 02:22:20;;;;;;;0.30;0.30;;;;;;;4.71;100.00;103297.56;5094912;28;20051;-57
2024/01/31 02:24:46;;;;;;;0.30;0.30;;;;;;;4.71;100.00;103296.63;5095020;28;20032;-57
2024/01/31 02:27:11;;;;;;;0.40;0.40;;;;;;;4.66;100.00;103295.31;5094741;28;20055;-57
2024/01/31 02:29:37;;;;;;;0.30;0.30;;;;;;;4.65;100.00;103294.41;5094481;28;20051;-57
2024/01/31 02:32:04;;;;;;;0.40;0.40;;;;;;;4.61;100.00;103300.00;5095206;28;20047;-57
2024/01/31 02:34:30;;;;;;;0.40;0.40;;;;;;;4.63;100.00;103300.16;5095052;28;20059;-57
2024/01/31 02:36:55;;;;;;;0.40;0.40;;;;;;;4.63;100.00;103297.59;5094470;28;20780;-58
2024/01/31 02:39:21;;;;;;;0.30;0.30;;;;;;;4.64;100.00;103304.50;5094741;28;20074;-58
2024/01/31 02:41:46;;;;;;;0.40;0.40;;;;;;;4.64;100.00;103295.16;5095100;28;20042;-57
2024/01/31 02:44:11;;;;;;;0.32;0.32;;;;;;;4.65;100.00;103306.28;5094074;28;20023;-57
2024/01/31 02:46:39;;;;;;;0.40;0.40;;;;;;;4.63;100.00;103307.81;5094698;28;20078;-58
2024/01/31 02:49:07;;;;;;;0.40;0.40;;;;;;;4.63;100.00;103300.16;5095025;28;20090;-57
2024/01/31 02:51:33;;;;;;;;;;;;;;;4.75;100.00;103304.75;5094277;28;20023;-57
2024/01/31 02:53:59;;;;;;;0.40;0.40;;;;;;;4.61;100.00;103300.91;5094683;28;19951;-57
2024/01/31 02:56:24;;;;;;;0.40;0.40;;;;;;;4.59;100.00;103299.84;5094268;28;20070;-57
2024/01/31 02:58:49;;;;;;;0.40;0.40;;;;;;;4.59;100.00;103289.63;5094040;28;20391;-57
2024/01/31 03:01:15;;;;;;;0.40;0.40;;;;;;;4.65;100.00;103290.94;5094220;28;20081;-58
2024/01/31 03:03:40;;;;;;;0.40;0.40;;;;;;;4.65;100.00;103288.41;5094543;28;20024;-57
2024/01/31 03:06:05;;;;;;;0.40;0.40;;;;;;;4.63;100.00;103287.38;5094119;28;20138;-57
2024/01/31 03:08:31;;;;;;;0.40;0.40;;;;;;;4.61;100.00;103283.00;5094283;28;20020;-57
2024/01/31 03:10:56;;;;;;;0.40;0.40;;;;;;;4.61;100.00;103272.78;5094239;28;20056;-57
2024/01/31 03:13:21;;;;;;;0.30;0.30;;;;;;;4.61;100.00;103277.03;5093632;28;20066;-57
2024/01/31 03:15:46;;;;;;;0.40;0.40;;;;;;;4.58;100.00;103269.97;5094359;28;20049;-57
2024/01/31 03:18:12;;;;;;;0.40;0.40;;;;;;;4.58;100.00;103275.06;5093970;28;20042;-57
2024/01/31 03:20:37;;;;;;;0.40;0.40;;;;;;;4.57;100.00;103275.81;5093832;28;20067;-57
2024/01/31 03:23:02;;;;;;;0.30;0.30;;;;;;;4.58;100.00;103272.53;5094290;28;20484;-57
2024/01/31 03:25:28;;;;;;;0.40;0.40;;;;;;;4.54;100.00;103267.88;5093557;28;20054;-57
2024/01/31 03:27:53;;;;;;;0.40;0.40;;;;;;;4.54;100.00;103275.53;5093659;28;20028;-57
2024/01/31 03:30:18;;;;;;;0.30;0.30;;;;;;;4.56;100.00;103271.47;5092914;28;20061;-57
2024/01/31 03:32:44;;;;;;;0.35;0.35;;;;;;;4.55;100.00;103264.56;5093758;28;20084;-57
2024/01/31 03:35:09;;;;;;;0.40;0.40;;;;;;;4.52;100.00;103264.28;5093420;28;20502;-57
2024/01/31 03:37:34;;;;;;;0.40;0.40;;;;;;;4.52;100.00;103264.28;5094074;28;20020;-57
2024/01/31 03:40:00;;;;;;;0.32;0.32;;;;;;;4.54;100.00;103257.66;5093211;28;20409;-57
2024/01/31 03:42:25;;;;;;;0.40;0.40;;;;;;;4.52;100.00;103259.19;5093390;28;20562;-57
2024/01/31 03:44:50;;;;;;;0.40;0.40;;;;;;;4.56;100.00;103258.69;5093651;28;20070;-57
2024/01/31 03:47:15;;;;;;;0.30;0.30;;;;;;;4.55;100.00;103254.34;5092569;28;20039;-57
2024/01/31 03:49:41;;;;;;;0.40;0.40;;;;;;;4.55;100.00;103253.47;5093988;28;20486;-57
2024/01/31 03:52:06;;;;;;;0.40;0.40;;;;;;;4.56;100.00;103251.03;5093768;28;20074;-57
2024/01/31 03:54:32;;;;;;;0.30;0.30;;;;;;;4.55;100.00;103259.44;5092534;28;20498;-57
2024/01/31 03:56:57;;;;;;;0.30;0.30;;;;;;;4.54;100.00;103244.88;5093380;28;20028;-57
2024/01/31 03:59:23;;;;;;;0.40;0.40;;;;;;;4.59;100.00;103256.41;5093380;28;20101;-57
2024/01/31 04:01:50;;;;;;;0.35;0.35;;;;;;;4.56;100.00;103257.81;5092604;28;20051;-58
2024/01/31 04:04:16;;;;;;;0.40;0.40;;;;;;;4.57;100.00;103249.38;5093149;28;20494;-57
2024/01/31 04:06:41;;;;;;;0.38;0.38;;;;;;;4.57;100.00;103249.38;5093325;28;20031;-57
2024/01/31 04:09:06;;;;;;;0.40;0.40;;;;;;;4.57;100.00;103247.72;5092907;28;20483;-57
2024/01/31 04:11:34;;;;;;;0.40;0.40;;;;;;;4.58;100.00;103252.09;5092906;28;20020;-58
2024/01/31 04:14:03;;;;;;;0.40;0.40;;;;;;;4.58;100.00;103244.44;5093201;28;20028;-57
2024/01/31 04:16:28;;;;;;;0.35;0.35;;;;;;;4.60;100.00;103242.00;5092221;28;20059;-57
2024/01/31 04:18:54;;;;;;;0.30;0.30;;;;;;;4.57;100.00;103237.50;5093240;28;20110;-57
2024/01/31 04:21:23;;;;;;;0.40;0.40;;;;;;;4.55;100.00;103243.25;5093022;28;20073;-57
2024/01/31 04:23:48;;;;;;;0.30;0.30;;;;;;;4.55;100.00;103246.69;5092738;28;20028;-57
2024/01/31 04:26:13;;;;;;;0.30;0.30;;;;;;;4.55;100.00;103251.78;5092937;28;20030;-58
2024/01/31 04:28:39;;;;;;;0.40;0.40;;;;;;;4.56;100.00;103239.94;5092778;28;20388;-58
2024/01/31 04:31:04;;;;;;;0.35;0.35;;;;;;;4.55;100.00;103238.13;5092470;28;20471;-58
2024/01/31 04:33:29;;;;;;;0.35;0.35;;;;;;;4.54;100.00;103244.00;5092952;28;20115;-57
2024/01/31 04:35:55;;;;;;;0.40;0.40;;;;;;;4.55;100.00;103238.13;5092649;28;20043;-58
2024/01/31 04:38:20;;;;;;;0.40;0.40;;;;;;;4.56;100.00;103245.94;5092204;28;20024;-58
2024/01/31 04:40:45;;;;;;;0.40;0.40;;;;;;;4.55;100.00;103239.00;5092668;28;20028;-58
2024/01/31 04:43:11;;;;;;;0.40;0.40;;;;;;;4.56;100.00;103240.81;5092375;28;20062;-58
2024/01/31 04:45:36;;;;;;;0.40;0.40;;;;;;;4.54;100.00;103237.22;5092305;28;20098;-57
2024/01/31 04:48:01;;;;;;;0.40;0.40;;;;;;;4.55;100.00;103245.78;5093059;28;20099;-58
2024/01/31 04:50:27;;;;;;;0.40;0.40;;;;;;;4.54;100.00;103242.31;5091981;28;20054;-58
2024/01/31 04:52:53;;;;;;;0.40;0.40;;;;;;;4.54;100.00;103247.44;5092911;28;20024;-58
2024/01/31 04:55:18;;;;;;;0.40;0.40;;;;;;;4.57;100.00;103242.63;5092568;28;20048;-58
2024/01/31 04:57:45;;;;;;;0.30;0.30;;;;;;;4.55;100.00;103244.13;5092120;28;20443;-57
2024/01/31 05:00:16;;;;;;;0.30;0.30;;;;;;;4.57;100.00;103247.72;5092326;28;20388;-58
2024/01/31 05:02:41;;;;;;;0.40;0.40;;;;;;;4.57;100.00;103242.63;5092379;28;20556;-58
2024/01/31 05:05:07;;;;;;;0.40;0.40;;;;;;;4.57;100.00;103240.06;5092295;28;20028;-57
2024/01/31 05:07:32;;;;;;;0.40;0.40;;;;;;;4.59;100.00;103235.09;5092473;28;20020;-58
2024/01/31 05:09:57;;;;;;;0.30;0.30;;;;;;;4.55;100.00;103240.69;5092718;28;20036;-58
2024/01/31 05:12:23;;;;;;;0.38;0.38;;;;;;;4.59;100.00;103240.22;5091892;28;20032;-57
2024/01/31 05:14:48;;;;;;;0.40;0.40;;;;;;;4.59;100.00;103235.09;5092657;28;20028;-58
2024/01/31 05:17:15;;;;;;;0.30;0.30;;;;;;;4.59;100.00;103233.44;5092256;28;20020;-58
2024/01/31 05:19:41;;;;;;;0.38;0.38;;;;;;;4.57;100.00;103231.50;5092200;28;20103;-57
2024/01/31 05:22:07;;;;;;;0.40;0.40;;;;;;;4.60;100.00;103234.34;5092593;28;20078;-57
2024/01/31 05:24:32;;;;;;;0.40;0.40;;;;;;;4.58;100.00;103224.00;5092069;28;20047;-57
2024/01/31 05:27:03;;;;;;;0.38;0.38;;;;;;;4.58;100.00;103226.56;5091687;28;20031;-58
2024/01/31 05:29:31;;;;;;;0.40;0.40;;;;;;;4.56;100.00;103238.25;5092510;28;20020;-57
2024/01/31 05:31:57;;;;;;;0.50;0.50;;;;;;;4.56;100.00;103239.94;5092420;28;20051;-57
2024/01/31 05:34:26;;;;;;;0.40;0.40;;;;;;;4.54;100.00;103232.09;5091835;28;20071;-57
2024/01/31 05:36:51;;;;;;;0.40;0.40;;;;;;;4.55;100.00;103233.91;5092340;28;20498;-57
2024/01/31 05:39:17;;;;;;;0.47;0.47;;;;;;;4.56;100.00;103233.16;5091903;28;20024;-57
2024/01/31 05:41:43;;;;;;;0.38;0.38;;;;;;;4.56;100.00;103240.81;5091794;28;20426;-57
2024/01/31 05:44:09;;;;;;;0.32;0.32;;;;;;;4.55;100.00;103238.13;5092614;28;20024;-57
2024/01/31 05:46:35;;;;;;;0.40;0.40;;;;;;;4.54;100.00;103237.22;5091372;28;20567;-57
2024/01/31 05:49:02;;;;;;;0.40;0.40;;;;;;;4.57;100.00;103237.50;5092453;28;20104;-57
2024/01/31 05:51:30;;;;;;;0.30;0.30;;;;;;;4.55;100.00;103233.03;5092081;28;20081;-57
2024/01/31 05:53:56;;;;;;;0.38;0.38;;;;;;;4.56;100.00;103239.94;5093345;28;20027;-58
2024/01/31 05:56:22;;;;;;;0.40;0.40;;;;;;;4.56;100.00;103235.72;5095478;28;20032;-58
2024/01/31 05:58:48;;;;;;;0.30;0.30;;;;;;;4.57;100.00;103236.59;5096181;28;20024;-58
2024/01/31 06:01:13;;;;;;;0.40;0.40;;;;;;;4.57;100.00;103237.50;5094966;28;20020;-58
2024/01/31 06:03:38;;;;;;;0.30;0.30;;;;;;;4.56;100.00;103230.59;5095630;28;20069;-57
2024/01/31 06:06:04;;;;;;;0.40;0.40;;;;;;;4.54;100.00;103236.31;5095598;28;20494;-58
2024/01/31 06:08:30;;;;;;;0.40;0.40;;;;;;;4.56;100.00;103240.81;5094900;28;20484;-58
2024/01/31 06:11:02;;;;;;;0.50;0.50;;;;;;;4.55;100.00;103241.56;5095504;28;20031;-58
2024/01/31 06:13:28;;;;;;;0.30;0.30;;;;;;;4.54;100.00;103237.22;5095295;28;20024;-58
2024/01/31 06:15:53;;;;;;;0.40;0.40;;;;;;;4.55;100.00;103239.00;5094922;28;20353;-58
2024/01/31 06:18:18;;;;;;;0.30;0.30;;;;;;;4.54;100.00;103228.66;5095256;28;20024;-58
2024/01/31 06:20:44;;;;;;;0.40;0.40;;;;;;;4.54;100.00;103227.00;5095109;28;20033;-58
2024/01/31 06:23:12;;;;;;;0.30;0.30;;;;;;;4.54;100.00;103227.00;5094602;28;20020;-58
2024/01/31 06:25:37;;;;;;;0.30;0.30;;;;;;;4.55;100.00;103217.69;5095369;28;20016;-58
2024/01/31 06:28:03;;;;;;;0.40;0.40;;;;;;;4.55;100.00;103213.47;5095276;28;20039;-58
2024/01/31 06:30:33;;;;;;;0.40;0.40;;;;;;;4.55;100.00;103218.59;5094631;28;20455;-58
2024/01/31 06:33:06;;;;;;;0.40;0.40;;;;;;;4.55;100.00;103208.38;5095360;28;20081;-58
2024/01/31 06:35:33;;;;;;;0.30;0.30;;;;;;;4.56;100.00;103209.28;5094750;28;20028;-58
2024/01/31 06:37:59;;;;;;;0.40;0.40;;;;;;;4.56;100.00;103206.75;5094533;28;20030;-58
2024/01/31 06:40:24;;;;;;;0.30;0.30;;;;;;;4.55;100.00;103205.81;5094927;28;20111;-58
2024/01/31 06:42:50;;;;;;;0.35;0.35;;;;;;;4.53;100.00;103194.59;5094029;28;20032;-58
2024/01/31 06:45:15;;;;;;;0.35;0.35;;;;;;;4.52;100.00;103182.56;5094625;28;20047;-58
2024/01/31 06:47:40;;;;;;;0.30;0.30;;;;;;;4.52;100.00;103187.66;5095140;28;20024;-58
2024/01/31 06:50:06;;;;;;;0.30;0.30;;;;;;;4.54;100.00;103188.69;5094040;28;20453;-58
2024/01/31 06:52:31;;;;;;;0.30;0.30;;;;;;;4.53;100.00;103186.91;5094538;28;20467;-58
2024/01/31 06:54:56;;;;;;;0.30;0.30;;;;;;;4.54;100.00;103190.34;5094860;28;20102;-58
2024/01/31 06:57:22;;;;;;;0.40;0.40;;;;;;;4.54;100.00;103191.25;5094020;28;20028;-58
2024/01/31 06:59:47;;;;;;;0.30;0.30;;;;;;;4.53;100.00;103184.38;5094641;28;20055;-58
2024/01/31 07:02:12;;;;;;;0.30;0.30;;;;;;;4.55;100.00;103200.72;5094237;28;20050;-58
2024/01/31 07:04:37;;;;;;;0.40;0.40;;;;;;;4.55;100.00;103200.72;5094113;28;20103;-58
2024/01/31 07:07:03;;;;;;;0.30;0.30;;;;;;;4.55;100.00;103210.03;5094395;28;20035;-58
2024/01/31 07:09:29;;;;;;;0.20;0.20;;;;;;;4.55;100.00;103228.81;5093942;28;20138;-58
2024/01/31 07:11:56;;;;;;;0.32;0.32;;;;;;;4.55;100.00;103244.13;5094063;28;20047;-58
2024/01/31 07:14:21;;;;;;;0.40;0.40;;;;;;;4.56;100.00;103251.03;5094325;28;20047;-58
2024/01/31 07:16:47;;;;;;;0.40;0.40;;;;;;;4.56;100.00;103251.03;5094182;28;20376;-57
2024/01/31 07:19:13;;;;;;;0.40;0.40;;;;;;;4.60;100.00;103262.44;5093520;28;20020;-58
2024/01/31 07:21:38;;;;;;;0.40;0.40;;;;;;;4.58;100.00;103264.88;5093812;28;20024;-58
2024/01/31 07:24:04;;;;;;;0.38;0.38;;;;;;;4.58;100.00;103282.75;5093797;28;20028;-58
2024/01/31 07:26:29;;;;;;;0.40;0.40;;;;;;;4.58;100.00;103280.19;5093495;28;20043;-58
2024/01/31 07:28:55;;;;;;;0.38;0.38;;;;;;;4.57;100.00;103283.50;5094220;28;20020;-58
2024/01/31 07:31:20;;;;;;;0.40;0.40;;;;;;;4.59;100.00;103292.19;5093517;28;20499;-58
2024/01/31 07:33:46;;;;;;;0.35;0.35;;;;;;;4.64;100.00;103294.28;5093421;28;20418;-58
2024/01/31 07:36:12;;;;;;;0.35;0.35;;;;;;;4.64;100.00;103284.06;5093400;28;20091;-58
2024/01/31 07:38:44;;;;;;;0.40;0.40;;;;;;;4.58;100.00;103290.41;5093646;28;20384;-58
2024/01/31 07:41:10;;;;;;;0.40;0.40;;;;;;;4.61;100.00;103297.44;5093239;28;20020;-58
2024/01/31 07:43:36;;;;;;;0.40;0.40;;;;;;;4.62;100.00;103294.13;5093953;28;20020;-58
2024/01/31 07:46:03;;;;;;;0.45;0.45;;;;;;;4.63;100.00;103292.47;5093422;28;20044;-58
2024/01/31 07:48:29;;;;;;;0.40;0.40;;;;;;;4.62;100.00;103296.66;5093166;28;20472;-58
2024/01/31 07:50:54;;;;;;;0.30;0.30;;;;;;;4.65;100.00;103301.16;5093642;28;20043;-58
2024/01/31 07:53:19;;;;;;;0.40;0.40;;;;;;;4.63;100.00;103287.38;5092798;28;20027;-58
2024/01/31 07:55:45;;;;;;;0.40;0.40;;;;;;;4.61;100.00;103290.69;5093840;28;20020;-58
2024/01/31 07:58:10;;;;;;;0.40;0.40;;;;;;;4.67;100.00;103294.56;5093161;28;20391;-58
2024/01/31 08:00:35;;;;;;;0.40;0.40;;;;;;;4.64;100.00;103297.72;5092952;28;20032;-59
2024/01/31 08:03:00;;;;;;;0.35;0.35;;;;;;;4.64;100.00;103289.19;5093316;28;20032;-59
2024/01/31 08:05:26;;;;;;;0.40;0.40;;;;;;;4.65;100.00;103290.94;5092886;28;20047;-58
2024/01/31 08:07:52;;;;;;;0.30;0.30;;;;;;;4.67;100.00;103289.44;5092816;28;20020;-58
2024/01/31 08:10:17;;;;;;;0.40;0.40;;;;;;;4.66;100.00;103287.66;5093321;28;20024;-58
2024/01/31 08:12:43;;;;;;;0.30;0.30;;;;;;;4.65;100.00;103279.09;5093232;28;20089;-59
2024/01/31 08:15:08;;;;;;;0.30;0.30;;;;;;;4.67;100.00;103271.56;5092640;28;20510;-58
2024/01/31 08:17:34;;;;;;;0.30;0.30;;;;;;;4.66;100.00;103267.22;5092572;28;20112;-58
2024/01/31 08:19:59;;;;;;;0.30;0.30;;;;;;;4.72;100.00;103273.78;5092990;28;20103;-58
2024/01/31 08:22:24;;;;;;;0.30;0.30;;;;;;;4.73;100.00;103282.38;5092371;28;20032;-58
2024/01/31 08:24:50;;;;;;;0.40;0.40;;;;;;;4.75;100.00;103280.81;5093060;28;20024;-58
2024/01/31 08:27:18;;;;;;;0.40;0.40;;;;;;;4.75;100.00;103280.81;5092562;28;20020;-58
2024/01/31 08:29:43;;;;;;;;;;;;;;;4.88;100.00;103282.84;5092645;28;20027;-58
2024/01/31 08:32:08;;;;;;;0.40;0.40;;;;;;;4.78;100.00;103276.03;5093157;28;19966;-58
2024/01/31 08:34:33;;;;;;;0.40;0.40;;;;;;;4.78;100.00;103268.34;5092470;28;20069;-58
2024/01/31 08:36:59;;;;;;;0.40;0.40;;;;;;;4.77;100.00;103262.34;5092496;28;20529;-58
2024/01/31 08:39:24;;;;;;;0.40;0.40;;;;;;;4.78;100.00;103260.69;5092867;28;20491;-58
2024/01/31 08:41:49;;;;;;;0.40;0.40;;;;;;;4.81;100.00;103268.63;5092861;28;20044;-58
2024/01/31 08:44:15;;;;;;;0.40;0.40;;;;;;;4.85;100.00;103255.38;5092145;28;20059;-61
2024/01/31 08:46:40;;;;;;;0.40;0.40;;;;;;;4.88;100.00;103253.13;5092945;28;20035;-58
2024/01/31 08:49:05;;;;;;;0.40;0.40;;;;;;;4.93;100.00;103251.88;5092482;28;20141;-58
2024/01/31 08:51:32;;;;;;;0.40;0.40;;;;;;;4.94;100.00;103253.69;5091887;28;20521;-58
2024/01/31 08:53:58;;;;;;;0.40;0.40;;;;;;;5.00;100.00;103255.00;5093077;28;20047;-58
2024/01/31 08:56:23;;;;;;;0.35;0.35;;;;;;;5.02;100.00;103244.16;5092254;28;20537;-58
2024/01/31 08:58:48;;;;;;;0.40;0.40;;;;;;;5.02;100.00;103244.16;5092735;28;20032;-58
2024/01/31 09:01:14;;;;;;;0.40;0.40;;;;;;;5.07;100.00;103248.03;5092278;28;20024;-58
2024/01/31 09:03:39;;;;;;;0.30;0.30;;;;;;;5.10;100.00;103243.19;5092025;28;20036;-58
2024/01/31 09:06:05;;;;;;;0.40;0.40;;;;;;;5.11;100.00;103238.97;5092566;28;20028;-57
2024/01/31 09:08:31;;;;;;;0.38;0.38;;;;;;;5.14;100.00;103226.47;5092101;28;20425;-58
2024/01/31 09:10:57;;;;;;;0.30;0.30;;;;;;;5.19;100.00;103226.88;5091880;28;20495;-58
2024/01/31 09:13:23;;;;;;;0.40;0.40;;;;;;;5.18;100.00;103223.41;5092389;28;20039;-58
2024/01/31 09:15:49;;;;;;;0.40;0.40;;;;;;;5.22;100.00;103217.81;5092288;28;20020;-58
2024/01/31 09:18:14;;;;;;;0.40;0.40;;;;;;;5.22;100.00;103217.81;5091726;28;20065;-58
2024/01/31 09:20:40;;;;;;;0.40;0.40;;;;;;;5.22;100.00;103209.25;5092762;28;20120;-58
2024/01/31 09:23:05;;;;;;;0.40;0.40;;;;;;;5.20;100.00;103204.03;5092388;28;20036;-58
2024/01/31 09:25:30;;;;;;;0.30;0.30;;;;;;;5.21;100.00;103203.22;5091659;28;20012;-58
2024/01/31 09:27:56;;;;;;;0.40;0.40;;;;;;;5.25;100.00;103196.75;5092988;28;20035;-58
2024/01/31 09:30:21;;;;;;;0.50;0.50;;;;;;;5.27;100.00;103193.56;5096025;28;20480;-58
2024/01/31 09:32:46;;;;;;;0.40;0.40;;;;;;;5.32;100.00;103183.75;5095870;28;20552;-57
2024/01/31 09:35:12;;;;;;;0.38;0.38;;;;;;;5.37;100.00;103191.81;5095965;28;20357;-58
2024/01/31 09:37:37;;;;;;;0.30;0.30;;;;;;;5.40;100.00;103194.66;5096089;28;20020;-58
2024/01/31 09:40:03;;;;;;;0.30;0.30;;;;;;;5.41;100.00;103186.19;5095570;28;20107;-58
2024/01/31 09:42:28;;;;;;;0.30;0.30;;;;;;;5.40;100.00;103187.00;5095853;28;20032;-58
2024/01/31 09:44:58;;;;;;;0.30;0.30;;;;;;;5.42;100.00;103177.78;5095658;28;20047;-58
2024/01/31 09:47:27;;;;;;;0.40;0.40;;;;;;;5.50;100.00;103178.44;5095197;28;20034;-58
2024/01/31 09:49:56;;;;;;;0.30;0.30;;;;;;;5.52;100.00;103175.25;5096265;28;20020;-58
2024/01/31 09:52:27;;;;;;;0.30;0.30;;;;;;;5.53;100.00;103174.50;5095405;28;20435;-58
2024/01/31 09:54:56;;;;;;;0.32;0.32;;;;;;;5.56;100.00;103169.66;5095406;28;20031;-58
2024/01/31 09:57:22;;;;;;;0.30;0.30;;;;;;;5.60;100.00;103161.50;5095619;28;20026;-58
2024/01/31 09:59:48;;;;;;;0.30;0.30;;;;;;;5.72;100.00;103165.88;5095099;28;20103;-58
2024/01/31 10:02:14;;;;;;;0.30;0.30;;;;;;;5.84;100.00;103166.94;5095321;28;20032;-58
2024/01/31 10:04:40;;;;;;;0.30;0.30;;;;;;;5.91;100.00;103174.38;5095436;28;20453;-58
2024/01/31 10:07:07;;;;;;;0.40;0.40;;;;;;;5.97;100.00;103186.81;5095422;28;20024;-58
2024/01/31 10:09:32;;;;;;;0.20;0.20;;;;;;;6.09;100.00;103185.34;5095538;28;20024;-57
2024/01/31 10:11:58;;;;;;;0.30;0.30;;;;;;;6.10;100.00;103191.34;5095491;28;20123;-57
2024/01/31 10:14:24;;;;;;;0.40;0.40;;;;;;;6.17;100.00;103193.69;5094872;28;20027;-57
2024/01/31 10:16:49;;;;;;;0.30;0.30;;;;;;;6.14;100.00;103183.16;5099694;28;20028;-58
2024/01/31 10:19:15;;;;;;;0.40;0.40;;;;;;;6.12;100.00;103189.84;5112646;28;20030;-58
2024/01/31 10:21:40;;;;;;;0.40;0.40;;;;;;;6.13;100.00;103200.97;5106678;28;20066;-58
2024/01/31 10:24:06;;;;;;;0.30;0.30;;;;;;;6.11;100.00;103203.41;5099845;28;20024;-58
2024/01/31 10:26:35;;;;;;;0.38;0.38;;;;;;;6.11;100.00;103200.84;5094855;28;20559;-58
2024/01/31 10:29:01;;;;;;;0.30;0.30;;;;;;;6.13;100.00;103208.63;5101347;28;20098;-58
2024/01/31 10:31:28;;;;;;;0.30;0.30;;;;;;;6.10;100.00;103207.59;5112979;28;20487;-57
2024/01/31 10:33:57;;;;;;;0.30;0.30;;;;;;;6.14;100.00;103203.66;5094783;28;20468;-57
2024/01/31 10:36:23;;;;;;;0.30;0.30;;;;;;;6.12;100.00;103204.28;5094449;28;20141;-58
2024/01/31 10:38:50;;;;;;;0.30;0.30;;;;;;;6.14;100.00;103201.09;5111683;28;20080;-58
2024/01/31 10:41:19;;;;;;;0.35;0.35;;;;;;;6.12;100.00;103207.75;5100216;28;20516;-58
2024/01/31 10:43:47;;;;;;;0.30;0.30;;;;;;;6.15;100.00;103205.44;5094574;28;20073;-58
2024/01/31 10:46:12;;;;;;;;;;;;;;;6.29;100.00;103208.28;5095013;28;20036;-59
2024/01/31 10:48:38;;;;;;;0.30;0.30;;;;;;;6.19;100.00;103209.16;5114843;28;19912;-59
2024/01/31 10:51:07;;;;;;;0.40;0.40;;;;;;;6.17;100.00;103200.44;5114829;27;20463;-59
2024/01/31 10:53:33;;;;;;;0.30;0.30;;;;;;;6.17;100.00;103206.50;5099429;28;20032;-59
2024/01/31 10:56:00;;;;;;;0.38;0.38;;;;;;;6.13;100.00;103193.28;5105033;28;20024;-58
2024/01/31 10:58:27;;;;;;;0.40;0.40;;;;;;;6.12;100.00;103197.50;5114682;28;20068;-59
2024/01/31 11:00:52;;;;;;;0.40;0.40;;;;;;;6.13;100.00;103185.59;5115026;28;20076;-59
2024/01/31 11:03:17;;;;;;;0.40;0.40;;;;;;;6.13;100.00;103185.59;5114251;28;20031;-60
2024/01/31 11:05:43;;;;;;;0.30;0.30;;;;;;;6.14;100.00;103172.91;5115296;28;20015;-60
2024/01/31 11:08:18;;;;;;;0.30;0.30;;;;;;;6.19;100.00;103179.31;5115223;28;20028;-59
2024/01/31 11:10:44;;;;;;;0.20;0.20;;;;;;;6.16;100.00;103165.38;5114443;28;20035;-59
2024/01/31 11:13:09;;;;;;;0.40;0.40;;;;;;;6.16;100.00;103173.97;5114681;28;20024;-59
2024/01/31 11:15:36;;;;;;;0.30;0.30;;;;;;;6.18;100.00;103164.72;5114476;28;20471;-59
2024/01/31 11:18:14;;;;;;;0.32;0.32;;;;;;;6.20;100.00;103155.53;5114307;28;20064;-59
2024/01/31 11:20:52;;;;;;;0.40;0.40;;;;;;;6.21;100.00;103154.75;5114915;28;20036;-59